createdAt,value
2023-05-15T00:00:52.864Z,70.42
2023-05-15T00:01:52.806Z,70.62
2023-05-15T00:02:52.973Z,70.92
2023-05-15T00:03:52.845Z,70.82
2023-05-15T00:04:52.822Z,71.03
2023-05-15T00:05:52.764Z,71.36
2023-05-15T00:06:52.750Z,71.67
2023-05-15T00:07:52.730Z,71.67
2023-05-15T00:08:52.746Z,71.57
2023-05-15T00:09:52.702Z,71.77
2023-05-15T00:11:00.730Z,71.67
2023-05-15T00:11:53.689Z,71.77
2023-05-15T00:12:52.705Z,71.97
2023-05-15T00:13:52.676Z,72.28
2023-05-15T00:14:52.682Z,71.97
2023-05-15T00:15:52.674Z,71.87
2023-05-15T00:16:52.684Z,71.77
2023-05-15T00:17:52.821Z,71.97
2023-05-15T00:18:52.689Z,72.08
2023-05-15T00:19:52.580Z,72.17
2023-05-15T00:20:52.574Z,72.38
2023-05-15T00:21:52.564Z,72.58
2023-05-15T00:22:52.560Z,72.69
2023-05-15T00:23:52.549Z,72.69
2023-05-15T00:24:52.592Z,72.78
2023-05-15T00:25:52.522Z,72.78
2023-05-15T00:26:52.510Z,72.92
2023-05-15T00:27:52.496Z,73.02
2023-05-15T00:28:52.469Z,73.13
2023-05-15T00:29:52.461Z,73.43
2023-05-15T00:30:52.526Z,73.43
2023-05-15T00:31:52.481Z,73.43
2023-05-15T00:32:52.471Z,73.33
2023-05-15T00:33:52.442Z,73.54
2023-05-15T00:34:52.409Z,73.74
2023-05-15T00:35:52.384Z,73.74
2023-05-15T00:36:52.375Z,73.84
2023-05-15T00:37:52.349Z,73.97
2023-05-15T00:38:52.339Z,73.87
2023-05-15T00:39:52.327Z,72.45
2023-05-15T00:40:52.324Z,71.70
2023-05-15T00:41:52.307Z,71.09
2023-05-15T00:42:52.294Z,70.68
2023-05-15T00:43:52.317Z,70.25
2023-05-15T00:44:52.284Z,69.33
2023-05-15T00:45:52.266Z,69.64
2023-05-15T00:46:52.271Z,70.86
2023-05-15T00:47:52.255Z,69.64
2023-05-15T00:48:52.224Z,71.36
2023-05-15T00:49:52.203Z,71.67
2023-05-15T00:50:52.223Z,71.87
2023-05-15T00:51:52.184Z,72.08
2023-05-15T00:52:52.171Z,72.17
2023-05-15T00:53:52.266Z,72.31
2023-05-15T00:54:52.148Z,72.52
2023-05-15T00:55:52.134Z,72.72
2023-05-15T00:56:52.113Z,72.92
2023-05-15T00:57:52.104Z,73.13
2023-05-15T00:58:52.127Z,73.26
2023-05-15T00:59:52.082Z,73.16
2023-05-15T01:00:52.088Z,73.57
2023-05-15T01:01:52.053Z,73.87
2023-05-15T01:02:52.169Z,74.08
2023-05-15T01:03:52.041Z,74.28
2023-05-15T01:04:52.043Z,74.18
2023-05-15T01:05:52.025Z,74.28
2023-05-15T01:06:51.995Z,74.28
2023-05-15T01:07:52.017Z,74.18
2023-05-15T01:08:51.962Z,74.38
2023-05-15T01:09:51.938Z,74.18
2023-05-15T01:10:51.937Z,73.87
2023-05-15T01:11:51.910Z,73.97
2023-05-15T01:12:51.906Z,74.18
2023-05-15T01:13:51.885Z,74.28
2023-05-15T01:14:51.892Z,74.38
2023-05-15T01:15:51.882Z,74.62
2023-05-15T01:16:51.861Z,74.62
2023-05-15T01:17:51.874Z,74.11
2023-05-15T01:18:51.960Z,74.52
2023-05-15T01:19:51.886Z,74.82
2023-05-15T01:20:51.808Z,74.72
2023-05-15T01:21:51.788Z,74.52
2023-05-15T01:22:51.796Z,73.40
2023-05-15T01:23:51.757Z,73.71
2023-05-15T01:24:51.757Z,74.32
2023-05-15T01:25:51.747Z,74.21
2023-05-15T01:26:51.737Z,74.52
2023-05-15T01:27:51.715Z,74.32
2023-05-15T01:28:51.886Z,74.52
2023-05-15T01:29:51.809Z,74.72
2023-05-15T01:30:51.678Z,74.72
2023-05-15T01:31:51.702Z,74.82
2023-05-15T01:32:51.711Z,74.93
2023-05-15T01:33:51.625Z,74.82
2023-05-15T01:34:51.650Z,75.02
2023-05-15T01:35:51.632Z,75.23
2023-05-15T01:36:51.620Z,75.43
2023-05-15T01:37:51.573Z,75.57
2023-05-15T01:38:51.569Z,75.67
2023-05-15T01:39:51.553Z,75.78
2023-05-15T01:40:51.567Z,75.78
2023-05-15T01:41:51.555Z,75.78
2023-05-15T01:42:51.536Z,75.88
2023-05-15T01:43:51.497Z,76.08
2023-05-15T01:44:51.536Z,75.88
2023-05-15T01:45:51.506Z,75.84
2023-05-15T01:46:51.509Z,76.28
2023-05-15T01:47:51.465Z,76.69
2023-05-15T01:48:51.465Z,76.49
2023-05-15T01:49:51.406Z,76.39
2023-05-15T01:50:51.411Z,76.69
2023-05-15T01:51:51.411Z,76.39
2023-05-15T01:52:51.388Z,76.69
2023-05-15T01:53:51.383Z,77.10
2023-05-15T01:54:51.376Z,77.10
2023-05-15T01:55:51.343Z,77.10
2023-05-15T01:56:51.338Z,77.20
2023-05-15T01:57:51.310Z,76.90
2023-05-15T01:58:51.314Z,76.90
2023-05-15T01:59:51.316Z,76.93
2023-05-15T02:00:51.372Z,76.90
2023-05-15T02:01:51.365Z,76.90
2023-05-15T02:02:51.320Z,76.90
2023-05-15T02:03:51.420Z,77.00
2023-05-15T02:04:51.245Z,77.00
2023-05-15T02:05:51.208Z,77.10
2023-05-15T02:06:51.212Z,77.00
2023-05-15T02:07:51.187Z,77.00
2023-05-15T02:08:51.202Z,77.20
2023-05-15T02:09:51.189Z,77.20
2023-05-15T02:10:51.165Z,77.44
2023-05-15T02:11:51.155Z,77.34
2023-05-15T02:12:51.139Z,77.03
2023-05-15T02:13:51.138Z,77.24
2023-05-15T02:14:51.182Z,77.34
2023-05-15T02:15:51.184Z,77.55
2023-05-15T02:16:51.092Z,77.75
2023-05-15T02:17:51.195Z,77.85
2023-05-15T02:18:51.088Z,77.64
2023-05-15T02:19:51.059Z,77.75
2023-05-15T02:20:51.314Z,77.85
2023-05-15T02:21:51.046Z,77.85
2023-05-15T02:22:51.016Z,77.75
2023-05-15T02:23:50.985Z,77.85
2023-05-15T02:24:50.990Z,78.05
2023-05-15T02:25:50.956Z,78.50
2023-05-15T02:26:50.962Z,78.50
2023-05-15T02:27:50.932Z,78.60
2023-05-15T02:28:50.922Z,78.60
2023-05-15T02:29:50.923Z,78.80
2023-05-15T02:30:50.914Z,78.91
2023-05-15T02:31:50.937Z,78.91
2023-05-15T02:32:51.013Z,78.91
2023-05-15T02:33:50.878Z,78.91
2023-05-15T02:34:50.907Z,78.91
2023-05-15T02:35:50.837Z,78.80
2023-05-15T02:36:50.859Z,78.70
2023-05-15T02:37:50.811Z,78.70
2023-05-15T02:38:50.809Z,78.91
2023-05-15T02:39:50.787Z,78.91
2023-05-15T02:40:50.802Z,78.91
2023-05-15T02:41:50.757Z,78.70
2023-05-15T02:42:50.763Z,77.89
2023-05-15T02:43:50.738Z,77.89
2023-05-15T02:44:50.741Z,78.09
2023-05-15T02:45:50.992Z,78.60
2023-05-15T02:46:50.745Z,78.80
2023-05-15T02:47:50.753Z,78.70
2023-05-15T02:48:50.713Z,78.36
2023-05-15T02:49:50.674Z,78.30
2023-05-15T02:50:50.667Z,78.39
2023-05-15T02:51:50.640Z,78.19
2023-05-15T02:52:50.645Z,78.16
2023-05-15T02:53:50.610Z,78.16
2023-05-15T02:54:50.597Z,78.16
2023-05-15T02:55:50.574Z,78.26
2023-05-15T02:56:50.576Z,78.56
2023-05-15T02:57:50.559Z,78.56
2023-05-15T02:58:50.575Z,78.77
2023-05-15T02:59:50.549Z,78.77
2023-05-15T03:00:50.539Z,78.77
2023-05-15T03:01:50.493Z,78.66
2023-05-15T03:02:50.507Z,78.87
2023-05-15T03:03:50.508Z,78.87
2023-05-15T03:04:50.481Z,78.97
2023-05-15T03:05:50.438Z,78.77
2023-05-15T03:06:50.457Z,78.66
2023-05-15T03:07:50.449Z,78.46
2023-05-15T03:08:50.441Z,78.26
2023-05-15T03:09:50.440Z,78.05
2023-05-15T03:10:50.417Z,77.95
2023-05-15T03:11:50.364Z,77.75
2023-05-15T03:12:50.387Z,78.26
2023-05-15T03:13:50.340Z,78.36
2023-05-15T03:14:50.352Z,78.77
2023-05-15T03:15:50.319Z,78.97
2023-05-15T03:16:50.355Z,79.07
2023-05-15T03:17:50.344Z,78.97
2023-05-15T03:18:50.359Z,78.87
2023-05-15T03:19:50.270Z,78.97
2023-05-15T03:20:50.265Z,78.97
2023-05-15T03:21:50.248Z,78.80
2023-05-15T03:22:50.260Z,78.70
2023-05-15T03:23:50.209Z,78.50
2023-05-15T03:24:50.222Z,78.30
2023-05-15T03:25:50.201Z,77.98
2023-05-15T03:26:50.243Z,77.58
2023-05-15T03:27:50.171Z,76.83
2023-05-15T03:28:50.164Z,77.55
2023-05-15T03:29:50.169Z,78.09
2023-05-15T03:30:50.191Z,78.39
2023-05-15T03:31:50.189Z,78.60
2023-05-15T03:32:50.194Z,78.60
2023-05-15T03:33:50.093Z,78.39
2023-05-15T03:34:50.091Z,78.60
2023-05-15T03:35:50.062Z,78.80
2023-05-15T03:36:50.068Z,78.70
2023-05-15T03:37:50.044Z,78.70
2023-05-15T03:38:50.036Z,78.70
2023-05-15T03:39:50.011Z,78.91
2023-05-15T03:40:51.267Z,78.80
2023-05-15T03:41:50.030Z,78.70
2023-05-15T03:42:49.979Z,78.60
2023-05-15T03:43:49.956Z,78.70
2023-05-15T03:44:49.938Z,78.91
2023-05-15T03:45:49.935Z,78.80
2023-05-15T03:46:49.979Z,78.80
2023-05-15T03:47:49.915Z,78.80
2023-05-15T03:48:49.933Z,79.00
2023-05-15T03:49:49.873Z,78.91
2023-05-15T03:50:49.912Z,79.21
2023-05-15T03:51:49.891Z,79.21
2023-05-15T03:52:49.869Z,79.00
2023-05-15T03:53:49.836Z,79.11
2023-05-15T03:54:49.816Z,79.00
2023-05-15T03:55:49.804Z,79.21
2023-05-15T03:56:49.796Z,79.41
2023-05-15T03:57:49.783Z,79.32
2023-05-15T03:58:49.796Z,77.48
2023-05-15T03:59:49.746Z,77.68
2023-05-15T04:00:49.777Z,78.70
2023-05-15T04:02:03.549Z,78.91
2023-05-15T04:02:50.782Z,78.91
2023-05-15T04:03:49.745Z,78.70
2023-05-15T04:04:49.755Z,78.56
2023-05-15T04:05:49.693Z,78.36
2023-05-15T04:06:49.651Z,78.36
2023-05-15T04:07:49.672Z,78.36
2023-05-15T04:08:49.657Z,78.36
2023-05-15T04:09:49.684Z,78.46
2023-05-15T04:10:49.615Z,78.36
2023-05-15T04:11:49.619Z,78.26
2023-05-15T04:12:49.621Z,78.26
2023-05-15T04:13:49.596Z,78.16
2023-05-15T04:14:49.566Z,78.05
2023-05-15T04:15:49.589Z,77.91
2023-05-15T04:16:49.609Z,77.81
2023-05-15T04:17:49.601Z,77.71
2023-05-15T04:18:49.595Z,77.51
2023-05-15T04:19:49.505Z,77.40
2023-05-15T04:20:49.492Z,77.30
2023-05-15T04:21:49.546Z,77.30
2023-05-15T04:22:49.522Z,77.20
2023-05-15T04:23:49.461Z,77.17
2023-05-15T04:24:49.430Z,77.47
2023-05-15T04:25:49.432Z,77.78
2023-05-15T04:26:49.500Z,77.67
2023-05-15T04:27:49.497Z,77.47
2023-05-15T04:29:02.840Z,77.26
2023-05-15T04:29:50.375Z,77.06
2023-05-15T04:30:49.376Z,76.92
2023-05-15T04:31:49.441Z,76.62
2023-05-15T04:32:49.391Z,76.62
2023-05-15T04:33:50.714Z,76.38
2023-05-15T04:34:49.313Z,76.07
2023-05-15T04:35:49.314Z,75.94
2023-05-15T04:36:49.534Z,75.53
2023-05-15T04:37:49.284Z,75.33
2023-05-15T04:38:49.279Z,75.02
2023-05-15T04:39:49.255Z,75.02
2023-05-15T04:40:49.227Z,74.88
2023-05-15T04:41:49.205Z,74.79
2023-05-15T04:42:49.195Z,74.38
2023-05-15T04:43:49.196Z,74.28
2023-05-15T04:44:49.167Z,74.24
2023-05-15T04:45:49.206Z,74.24
2023-05-15T04:46:49.180Z,74.24
2023-05-15T04:47:49.163Z,73.83
2023-05-15T04:48:49.244Z,73.63
2023-05-15T04:49:49.124Z,73.74
2023-05-15T04:50:49.098Z,73.94
2023-05-15T04:51:49.092Z,73.94
2023-05-15T04:52:49.060Z,74.04
2023-05-15T04:53:49.073Z,73.94
2023-05-15T04:54:49.043Z,74.14
2023-05-15T04:55:49.056Z,74.34
2023-05-15T04:56:49.029Z,74.34
2023-05-15T04:57:49.027Z,74.44
2023-05-15T04:58:48.995Z,74.44
2023-05-15T04:59:49.008Z,74.04
2023-05-15T05:00:48.993Z,74.14
2023-05-15T05:01:48.997Z,73.94
2023-05-15T05:02:48.996Z,72.92
2023-05-15T05:03:48.968Z,73.53
2023-05-15T05:04:48.925Z,72.78
2023-05-15T05:05:48.922Z,73.19
2023-05-15T05:06:48.888Z,72.89
2023-05-15T05:07:48.892Z,72.78
2023-05-15T05:08:48.870Z,73.19
2023-05-15T05:09:48.874Z,72.78
2023-05-15T05:10:48.850Z,72.58
2023-05-15T05:11:48.836Z,73.60
2023-05-15T05:12:48.814Z,73.06
2023-05-15T05:13:48.810Z,72.25
2023-05-15T05:14:48.851Z,73.16
2023-05-15T05:15:48.914Z,73.36
2023-05-15T05:16:48.792Z,72.89
2023-05-15T05:17:48.867Z,73.26
2023-05-15T05:18:48.802Z,73.36
2023-05-15T05:19:48.845Z,73.46
2023-05-15T05:20:48.738Z,72.96
2023-05-15T05:21:48.725Z,72.75
2023-05-15T05:22:48.704Z,72.96
2023-05-15T05:23:48.696Z,73.09
2023-05-15T05:24:48.696Z,72.48
2023-05-15T05:25:48.678Z,72.28
2023-05-15T05:26:48.647Z,71.77
2023-05-15T05:27:48.646Z,71.77
2023-05-15T05:28:48.618Z,71.77
2023-05-15T05:29:48.612Z,71.64
2023-05-15T05:30:48.602Z,71.73
2023-05-15T05:31:48.623Z,71.53
2023-05-15T05:32:48.616Z,71.13
2023-05-15T05:33:48.571Z,70.39
2023-05-15T05:34:48.537Z,70.79
2023-05-15T05:35:48.553Z,69.57
2023-05-15T05:36:48.513Z,68.66
2023-05-15T05:37:48.508Z,68.46
2023-05-15T05:38:48.506Z,68.56
2023-05-15T05:39:48.491Z,68.15
2023-05-15T05:40:55.484Z,67.00
2023-05-15T05:41:48.457Z,67.11
2023-05-15T05:42:48.441Z,67.82
2023-05-15T05:43:48.458Z,67.72
2023-05-15T05:44:48.417Z,67.41
2023-05-15T05:45:48.625Z,67.51
2023-05-15T05:46:48.425Z,66.97
2023-05-15T05:47:48.474Z,66.37
2023-05-15T05:48:48.436Z,67.38
2023-05-15T05:49:48.449Z,66.77
2023-05-15T05:50:48.342Z,67.18
2023-05-15T05:51:48.345Z,66.47
2023-05-15T05:52:48.314Z,66.67
2023-05-15T05:53:48.317Z,66.77
2023-05-15T05:54:48.325Z,66.27
2023-05-15T05:55:48.278Z,65.53
2023-05-15T05:56:48.260Z,65.53
2023-05-15T05:57:48.276Z,65.42
2023-05-15T05:58:48.261Z,64.51
2023-05-15T05:59:48.266Z,65.12
2023-05-15T06:00:48.237Z,64.92
2023-05-15T06:01:48.241Z,65.12
2023-05-15T06:02:48.328Z,65.32
2023-05-15T06:03:48.295Z,65.32
2023-05-15T06:04:48.153Z,64.21
2023-05-15T06:05:48.170Z,64.72
2023-05-15T06:06:48.130Z,65.22
2023-05-15T06:07:48.167Z,65.42
2023-05-15T06:08:48.120Z,65.42
2023-05-15T06:09:48.134Z,65.50
2023-05-15T06:10:48.150Z,65.50
2023-05-15T06:11:48.071Z,65.19
2023-05-15T06:12:48.076Z,64.99
2023-05-15T06:13:48.039Z,64.69
2023-05-15T06:14:48.029Z,64.18
2023-05-15T06:15:48.021Z,64.28
2023-05-15T06:16:48.060Z,64.48
2023-05-15T06:17:48.189Z,65.90
2023-05-15T06:18:48.024Z,65.36
2023-05-15T06:19:48.005Z,64.86
2023-05-15T06:20:47.946Z,62.63
2023-05-15T06:21:47.952Z,62.53
2023-05-15T06:22:47.943Z,62.73
2023-05-15T06:23:47.920Z,63.24
2023-05-15T06:24:47.912Z,62.84
2023-05-15T06:25:47.909Z,62.84
2023-05-15T06:26:48.555Z,62.43
2023-05-15T06:27:47.894Z,62.53
2023-05-15T06:28:47.886Z,62.63
2023-05-15T06:29:47.853Z,62.73
2023-05-15T06:30:47.905Z,62.93
2023-05-15T06:31:47.876Z,63.34
2023-05-15T06:32:47.834Z,62.93
2023-05-15T06:33:47.782Z,61.79
2023-05-15T06:34:47.786Z,62.40
2023-05-15T06:35:47.807Z,61.69
2023-05-15T06:36:48.033Z,61.90
2023-05-15T06:37:47.773Z,61.69
2023-05-15T06:38:47.774Z,61.69
2023-05-15T06:39:47.717Z,61.69
2023-05-15T06:40:47.713Z,60.96
2023-05-15T06:41:47.830Z,60.75
2023-05-15T06:42:47.714Z,60.65
2023-05-15T06:43:47.691Z,60.75
2023-05-15T06:44:47.666Z,60.45
2023-05-15T06:45:47.687Z,60.45
2023-05-15T06:46:47.642Z,60.45
2023-05-15T06:47:47.617Z,59.84
2023-05-15T06:48:47.597Z,59.94
2023-05-15T06:49:47.648Z,59.81
2023-05-15T06:50:47.685Z,59.81
2023-05-15T06:51:47.594Z,59.81
2023-05-15T06:52:47.556Z,60.02
2023-05-15T06:53:48.547Z,60.02
2023-05-15T06:54:47.526Z,60.02
2023-05-15T06:55:47.514Z,60.22
2023-05-15T06:56:47.734Z,59.91
2023-05-15T06:57:47.518Z,60.32
2023-05-15T06:58:47.530Z,60.49
2023-05-15T06:59:47.470Z,60.39
2023-05-15T07:00:47.441Z,59.78
2023-05-15T07:01:47.507Z,60.49
2023-05-15T07:02:47.452Z,60.39
2023-05-15T07:03:47.428Z,60.39
2023-05-15T07:04:47.469Z,59.18
2023-05-15T07:05:47.445Z,57.97
2023-05-15T07:06:47.648Z,57.16
2023-05-15T07:07:47.349Z,57.97
2023-05-15T07:08:47.348Z,57.36
2023-05-15T07:09:47.333Z,57.76
2023-05-15T07:10:47.420Z,57.67
2023-05-15T07:11:47.322Z,57.56
2023-05-15T07:12:47.344Z,57.97
2023-05-15T07:13:47.279Z,57.64
2023-05-15T07:14:47.256Z,57.43
2023-05-15T07:15:47.307Z,57.64
2023-05-15T07:16:47.285Z,56.73
2023-05-15T07:17:47.318Z,56.83
2023-05-15T07:18:47.319Z,57.31
2023-05-15T07:19:47.219Z,57.10
2023-05-15T07:20:47.202Z,56.17
2023-05-15T07:21:47.195Z,55.57
2023-05-15T07:22:55.830Z,54.86
2023-05-15T07:23:48.183Z,54.76
2023-05-15T07:24:47.137Z,55.26
2023-05-15T07:25:47.139Z,54.76
2023-05-15T07:26:58.297Z,54.96
2023-05-15T07:27:48.108Z,54.94
2023-05-15T07:28:47.071Z,55.24
2023-05-15T07:29:47.125Z,54.71
2023-05-15T07:30:47.090Z,54.48
2023-05-15T07:31:47.074Z,53.98
2023-05-15T07:32:47.630Z,54.05
2023-05-15T07:33:47.015Z,54.46
2023-05-15T07:34:47.004Z,54.15
2023-05-15T07:35:46.997Z,53.92
2023-05-15T07:36:46.989Z,54.03
2023-05-15T07:37:47.018Z,53.12
2023-05-15T07:38:46.947Z,52.94
2023-05-15T07:39:46.957Z,53.34
2023-05-15T07:40:46.921Z,54.03
2023-05-15T07:41:46.932Z,54.33
2023-05-15T07:42:46.931Z,52.62
2023-05-15T07:43:46.958Z,53.75
2023-05-15T07:44:49.358Z,52.54
2023-05-15T07:45:47.505Z,52.54
2023-05-15T07:46:46.873Z,52.24
2023-05-15T07:47:47.119Z,52.84
2023-05-15T07:48:46.813Z,53.25
2023-05-15T07:49:46.805Z,52.34
2023-05-15T07:50:46.805Z,52.34
2023-05-15T07:51:46.831Z,52.24
2023-05-15T07:52:46.800Z,52.44
2023-05-15T07:53:47.428Z,51.93
2023-05-15T07:54:46.757Z,51.93
2023-05-15T07:55:46.759Z,52.24
2023-05-15T07:56:47.100Z,52.14
2023-05-15T07:57:53.418Z,51.93
2023-05-15T07:58:47.735Z,52.14
2023-05-15T07:59:46.805Z,51.84
2023-05-15T08:00:47.078Z,52.04
2023-05-15T08:01:47.485Z,51.73
2023-05-15T08:02:47.654Z,51.84
2023-05-15T08:03:46.738Z,51.23
2023-05-15T08:04:46.636Z,51.43
2023-05-15T08:05:46.662Z,51.54
2023-05-15T08:06:46.646Z,51.73
2023-05-15T08:07:46.645Z,51.76
2023-05-15T08:08:46.646Z,52.77
2023-05-15T08:09:46.633Z,52.44
2023-05-15T08:10:46.724Z,52.34
2023-05-15T08:11:46.778Z,52.54
2023-05-15T08:12:47.494Z,51.73
2023-05-15T08:13:46.633Z,52.04
2023-05-15T08:14:46.528Z,51.93
2023-05-15T08:15:46.931Z,51.81
2023-05-15T08:16:47.114Z,52.42
2023-05-15T08:17:46.481Z,52.01
2023-05-15T08:18:46.600Z,51.61
2023-05-15T08:19:47.125Z,51.81
2023-05-15T08:20:47.043Z,51.81
2023-05-15T08:21:46.408Z,52.19
2023-05-15T08:22:46.418Z,51.49
2023-05-15T08:23:46.578Z,51.81
2023-05-15T08:24:47.185Z,51.61
2023-05-15T08:25:46.330Z,52.09
2023-05-15T08:26:47.251Z,52.09
2023-05-15T08:27:46.627Z,51.39
2023-05-15T08:28:47.312Z,51.49
2023-05-15T08:29:46.466Z,51.79
2023-05-15T08:30:46.292Z,52.29
2023-05-15T08:31:46.339Z,51.59
2023-05-15T08:32:46.413Z,51.29
2023-05-15T08:33:46.349Z,51.09
2023-05-15T08:34:46.281Z,51.86
2023-05-15T08:35:46.315Z,52.17
2023-05-15T08:36:46.310Z,50.76
2023-05-15T08:37:47.415Z,50.56
2023-05-15T08:38:46.345Z,50.13
2023-05-15T08:39:46.357Z,50.33
2023-05-15T08:40:46.425Z,49.55
2023-05-15T08:41:46.390Z,49.76
2023-05-15T08:42:46.335Z,49.76
2023-05-15T08:43:46.440Z,49.48
2023-05-15T08:44:46.464Z,50.18
2023-05-15T08:45:46.166Z,50.38
2023-05-15T08:46:46.364Z,50.48
2023-05-15T08:47:46.145Z,50.58
2023-05-15T08:48:46.104Z,51.18
2023-05-15T08:49:46.302Z,50.10
2023-05-15T08:50:46.056Z,50.31
2023-05-15T08:51:46.116Z,50.40
2023-05-15T08:52:46.014Z,50.60
2023-05-15T08:53:46.006Z,51.11
2023-05-15T08:54:48.129Z,51.18
2023-05-15T08:55:46.004Z,51.68
2023-05-15T08:56:46.019Z,51.68
2023-05-15T08:57:46.070Z,50.89
2023-05-15T08:58:45.954Z,51.11
2023-05-15T08:59:45.957Z,50.40
2023-05-15T09:00:45.927Z,50.51
2023-05-15T09:01:45.904Z,50.73
2023-05-15T09:02:45.990Z,50.63
2023-05-15T09:03:45.900Z,50.63
2023-05-15T09:04:45.842Z,50.93
2023-05-15T09:05:45.823Z,50.93
2023-05-15T09:06:45.832Z,51.23
2023-05-15T09:07:45.806Z,51.43
2023-05-15T09:08:45.840Z,51.14
2023-05-15T09:09:45.760Z,51.23
2023-05-15T09:10:45.768Z,51.21
2023-05-15T09:11:45.745Z,51.21
2023-05-15T09:12:45.753Z,51.21
2023-05-15T09:13:45.798Z,51.41
2023-05-15T09:14:45.706Z,50.71
2023-05-15T09:15:45.684Z,50.71
2023-05-15T09:16:45.755Z,50.60
2023-05-15T09:17:45.745Z,51.41
2023-05-15T09:18:45.711Z,50.81
2023-05-15T09:19:45.655Z,51.11
2023-05-15T09:20:45.637Z,51.21
2023-05-15T09:21:45.621Z,50.71
2023-05-15T09:22:45.642Z,50.60
2023-05-15T09:23:45.597Z,50.71
2023-05-15T09:24:45.611Z,50.98
2023-05-15T09:25:45.555Z,51.11
2023-05-15T09:26:45.576Z,51.31
2023-05-15T09:27:45.637Z,51.21
2023-05-15T09:28:45.548Z,51.41
2023-05-15T09:29:45.536Z,51.09
2023-05-15T09:30:45.520Z,51.09
2023-05-15T09:31:45.523Z,50.68
2023-05-15T09:32:45.576Z,50.98
2023-05-15T09:33:45.508Z,51.09
2023-05-15T09:34:45.470Z,51.09
2023-05-15T09:35:45.438Z,50.98
2023-05-15T09:36:45.461Z,51.26
2023-05-15T09:37:45.412Z,51.16
2023-05-15T09:38:45.416Z,50.96
2023-05-15T09:39:45.425Z,50.78
2023-05-15T09:40:45.393Z,51.09
2023-05-15T09:41:45.357Z,51.18
2023-05-15T09:42:46.263Z,50.89
2023-05-15T09:43:45.318Z,50.35
2023-05-15T09:44:45.318Z,50.66
2023-05-15T09:45:45.304Z,50.46
2023-05-15T09:46:45.468Z,50.05
2023-05-15T09:47:45.355Z,50.76
2023-05-15T09:48:45.282Z,51.06
2023-05-15T09:49:45.270Z,51.46
2023-05-15T09:50:45.298Z,50.66
2023-05-15T09:51:45.253Z,49.55
2023-05-15T09:52:45.256Z,50.35
2023-05-15T09:53:45.189Z,49.85
2023-05-15T09:55:45.216Z,50.56
2023-05-15T09:56:45.192Z,50.86
2023-05-15T09:57:45.154Z,50.33
2023-05-15T09:58:45.143Z,49.83
2023-05-15T09:59:45.133Z,50.13
2023-05-15T10:00:48.113Z,50.33
2023-05-15T10:01:45.119Z,50.13
2023-05-15T10:02:45.186Z,49.21
2023-05-15T10:03:45.106Z,49.51
2023-05-15T10:04:45.092Z,49.71
2023-05-15T10:05:45.199Z,49.91
2023-05-15T10:06:45.051Z,49.10
2023-05-15T10:07:45.069Z,49.30
2023-05-15T10:08:45.037Z,49.38
2023-05-15T10:09:45.035Z,49.48
2023-05-15T10:10:45.069Z,49.98
2023-05-15T10:11:45.075Z,49.05
2023-05-15T10:12:46.252Z,49.16
2023-05-15T10:13:44.975Z,49.16
2023-05-15T10:14:44.979Z,48.55
2023-05-15T10:15:45.039Z,48.66
2023-05-15T10:16:44.964Z,48.75
2023-05-15T10:17:44.999Z,49.26
2023-05-15T10:18:45.122Z,49.66
2023-05-15T10:19:57.191Z,48.46
2023-05-15T10:20:45.935Z,48.35
2023-05-15T10:21:44.883Z,47.96
2023-05-15T10:22:44.879Z,48.66
2023-05-15T10:23:45.099Z,48.03
2023-05-15T10:24:44.822Z,47.31
2023-05-15T10:25:44.792Z,47.61
2023-05-15T10:26:44.832Z,47.33
2023-05-15T10:27:45.084Z,48.13
2023-05-15T10:28:45.003Z,48.43
2023-05-15T10:29:44.766Z,48.96
2023-05-15T10:30:44.845Z,49.26
2023-05-15T10:31:44.802Z,49.66
2023-05-15T10:32:44.779Z,50.16
2023-05-15T10:33:44.707Z,50.36
2023-05-15T10:34:44.690Z,50.36
2023-05-15T10:35:45.353Z,50.56
2023-05-15T10:36:44.672Z,51.37
2023-05-15T10:37:44.697Z,51.26
2023-05-15T10:38:44.643Z,51.26
2023-05-15T10:39:44.642Z,51.26
2023-05-15T10:40:44.622Z,51.39
2023-05-15T10:41:44.587Z,51.69
2023-05-15T10:42:44.602Z,51.89
2023-05-15T10:43:44.584Z,51.19
2023-05-15T10:44:44.686Z,51.59
2023-05-15T10:45:44.637Z,50.18
2023-05-15T10:46:44.595Z,49.10
2023-05-15T10:47:44.559Z,49.21
2023-05-15T10:48:44.520Z,49.40
2023-05-15T10:49:44.563Z,49.13
2023-05-15T10:50:44.516Z,49.22
2023-05-15T10:51:44.481Z,49.22
2023-05-15T10:52:44.532Z,47.92
2023-05-15T10:53:44.458Z,48.22
2023-05-15T10:54:44.507Z,48.32
2023-05-15T10:55:44.633Z,48.72
2023-05-15T10:56:44.495Z,49.53
2023-05-15T10:57:44.632Z,49.63
2023-05-15T10:58:44.398Z,49.33
2023-05-15T10:59:44.391Z,50.43
2023-05-15T11:00:44.409Z,50.15
2023-05-15T11:01:44.414Z,49.95
2023-05-15T11:02:44.391Z,50.46
2023-05-15T11:03:49.464Z,51.16
2023-05-15T11:04:45.456Z,51.16
2023-05-15T11:05:44.275Z,50.86
2023-05-15T11:06:44.374Z,50.76
2023-05-15T11:07:44.291Z,50.86
2023-05-15T11:08:45.224Z,51.26
2023-05-15T11:09:44.255Z,51.56
2023-05-15T11:10:44.253Z,51.66
2023-05-15T11:11:44.242Z,51.64
2023-05-15T11:12:44.214Z,51.84
2023-05-15T11:13:44.200Z,51.14
2023-05-15T11:14:44.205Z,51.34
2023-05-15T11:15:44.164Z,51.11
2023-05-15T11:16:44.210Z,51.21
2023-05-15T11:17:44.217Z,51.64
2023-05-15T11:18:44.191Z,50.93
2023-05-15T11:19:44.123Z,50.84
2023-05-15T11:20:44.120Z,51.54
2023-05-15T11:21:44.632Z,51.84
2023-05-15T11:22:44.123Z,51.51
2023-05-15T11:23:44.099Z,51.61
2023-05-15T11:24:44.078Z,51.09
2023-05-15T11:25:44.043Z,50.99
2023-05-15T11:26:44.043Z,50.38
2023-05-15T11:27:44.040Z,50.68
2023-05-15T11:28:44.017Z,50.66
2023-05-15T11:29:43.977Z,49.56
2023-05-15T11:30:44.079Z,49.58
2023-05-15T11:31:43.992Z,50.01
2023-05-15T11:32:44.047Z,49.91
2023-05-15T11:33:43.961Z,49.71
2023-05-15T11:34:43.923Z,50.31
2023-05-15T11:35:43.909Z,50.38
2023-05-15T11:36:43.926Z,50.38
2023-05-15T11:37:43.901Z,50.26
2023-05-15T11:38:43.887Z,50.26
2023-05-15T11:39:44.518Z,49.54
2023-05-15T11:40:43.873Z,49.54
2023-05-15T11:41:43.852Z,49.54
2023-05-15T11:42:43.856Z,49.13
2023-05-15T11:43:43.789Z,49.04
2023-05-15T11:44:43.824Z,49.63
2023-05-15T11:45:43.766Z,50.13
2023-05-15T11:46:43.872Z,48.83
2023-05-15T11:47:43.850Z,48.93
2023-05-15T11:48:43.775Z,48.93
2023-05-15T11:49:44.011Z,49.23
2023-05-15T11:50:43.721Z,48.33
2023-05-15T11:51:43.704Z,48.13
2023-05-15T11:52:43.735Z,48.16
2023-05-15T11:53:43.767Z,48.88
2023-05-15T11:54:43.660Z,48.55
2023-05-15T11:55:43.655Z,48.66
2023-05-15T11:56:43.661Z,48.43
2023-05-15T11:57:43.683Z,48.13
2023-05-15T11:58:43.624Z,47.93
2023-05-15T11:59:43.631Z,48.53
2023-05-15T12:00:43.610Z,48.41
2023-05-15T12:01:43.574Z,48.58
2023-05-15T12:02:43.647Z,48.08
2023-05-15T12:03:43.710Z,48.58
2023-05-15T12:04:43.619Z,46.48
2023-05-15T12:05:56.926Z,47.58
2023-05-15T12:06:44.568Z,47.56
2023-05-15T12:07:43.510Z,47.36
2023-05-15T12:08:43.526Z,47.44
2023-05-15T12:09:43.502Z,46.94
2023-05-15T12:10:43.484Z,45.34
2023-05-15T12:11:43.438Z,45.26
2023-05-15T12:12:43.457Z,46.66
2023-05-15T12:13:43.438Z,46.36
2023-05-15T12:14:43.472Z,45.26
2023-05-15T12:15:43.416Z,44.86
2023-05-15T12:16:43.443Z,44.66
2023-05-15T12:17:43.435Z,44.16
2023-05-15T12:18:43.408Z,44.06
2023-05-15T12:19:43.377Z,44.56
2023-05-15T12:20:43.388Z,44.86
2023-05-15T12:21:43.320Z,44.68
2023-05-15T12:22:43.365Z,45.08
2023-05-15T12:23:44.375Z,45.08
2023-05-15T12:24:43.318Z,45.38
2023-05-15T12:25:43.414Z,45.78
2023-05-15T12:26:43.276Z,45.98
2023-05-15T12:27:43.322Z,45.86
2023-05-15T12:28:43.240Z,44.96
2023-05-15T12:29:43.255Z,45.76
2023-05-15T12:30:43.256Z,45.36
2023-05-15T12:31:43.299Z,45.36
2023-05-15T12:32:43.316Z,44.64
2023-05-15T12:33:43.194Z,44.64
2023-05-15T12:34:43.209Z,44.34
2023-05-15T12:35:43.164Z,45.16
2023-05-15T12:36:43.152Z,45.56
2023-05-15T12:37:43.170Z,45.56
2023-05-15T12:38:43.204Z,44.93
2023-05-15T12:39:43.112Z,44.43
2023-05-15T12:40:43.065Z,44.64
2023-05-15T12:41:43.088Z,44.82
2023-05-15T12:42:43.090Z,44.71
2023-05-15T12:43:43.056Z,44.51
2023-05-15T12:44:43.990Z,44.09
2023-05-15T12:45:43.065Z,44.49
2023-05-15T12:46:43.003Z,44.59
2023-05-15T12:47:43.441Z,44.49
2023-05-15T12:48:43.021Z,44.59
2023-05-15T12:49:42.973Z,44.92
2023-05-15T12:50:42.936Z,45.21
2023-05-15T12:51:42.927Z,45.12
2023-05-15T12:52:42.996Z,45.01
2023-05-15T12:53:42.915Z,45.24